Time;durP1;ratioP1;P1;durP2;ratioP2;P2;SDS_P1;SDS_P2;PMS_P1;PMS_P2;Temp;Humidity;BMP_temperature;BMP_pressure;BME280_temperature;BME280_humidity;BME280_pressure;Samples;Min_cycle;Max_cycle;Signal;HPM_P1;HPM_P2
2023/05/13 00:00:49;;;;;;;;;11.00;11.00;;;;;16.36;100.00;101131.16;4785851;29;47339;-88
2023/05/13 00:03:20;;;;;;;;;10.00;8.67;;;;;16.27;100.00;101112.44;4787552;29;45347;-88
2023/05/13 00:05:46;;;;;;;;;8.33;8.33;;;;;16.33;100.00;101134.75;4802833;29;45802;-88
2023/05/13 00:08:12;;;;;;;;;11.67;10.33;;;;;16.20;100.00;101115.13;4785800;29;45555;-88
2023/05/13 00:10:44;;;;;;;;;13.00;12.33;;;;;16.26;100.00;101121.38;4781418;29;47888;-88
2023/05/13 00:13:13;;;;;;;;;12.33;12.33;;;;;16.36;100.00;101113.28;4784017;29;45526;-88
2023/05/13 00:15:40;;;;;;;;;11.67;11.67;;;;;16.23;100.00;101110.66;4783916;29;45374;-88
2023/05/13 00:18:08;;;;;;;;;12.67;12.00;;;;;16.32;100.00;101106.16;4784949;29;45269;-88
2023/05/13 00:20:34;;;;;;;;;7.67;7.67;;;;;16.31;100.00;101117.78;4784903;29;47247;-88
2023/05/13 00:23:01;;;;;;;;;11.67;11.67;;;;;16.14;100.00;101079.38;4784058;29;45401;-88
2023/05/13 00:25:27;;;;;;;;;12.67;11.33;;;;;16.27;100.00;101107.06;4783605;29;45336;-87
2023/05/13 00:31:16;;;;;;;;;9.33;9.33;;;;;16.48;100.00;101139.22;4786361;29;44922;-88
2023/05/13 00:33:41;;;;;;;;;10.00;10.00;;;;;16.03;100.00;101090.13;4783937;29;45403;-88
2023/05/13 00:36:09;;;;;;;;;12.33;11.00;;;;;16.07;100.00;101112.47;4783750;29;44801;-87
2023/05/13 00:38:35;;;;;;;;;11.00;11.00;;;;;16.09;100.00;101119.63;4785311;29;45289;-89
2023/05/13 00:41:05;;;;;;;;;14.00;12.33;;;;;16.23;100.00;101130.31;4781792;29;47335;-88
2023/05/13 00:43:30;;;;;;;;;11.67;11.00;;;;;16.27;100.00;101137.47;4780031;29;45369;-87
2023/05/13 00:45:57;;;;;;;;;13.00;12.67;;;;;16.25;100.00;101139.25;4780959;29;45774;-88
2023/05/13 00:48:23;;;;;;;;;19.67;15.67;;;;;16.03;100.00;101108.03;4781558;29;45383;-88
2023/05/13 00:50:49;;;;;;;;;14.33;13.33;;;;;15.99;100.00;101113.38;4782466;29;46984;-88
2023/05/13 00:53:16;;;;;;;;;12.33;11.67;;;;;16.08;100.00;101116.94;4782636;29;44726;-89
2023/05/13 00:55:43;;;;;;;;;10.33;10.33;;;;;16.11;100.00;101143.78;4782628;29;45520;-88
2023/05/13 00:58:10;;;;;;;;;14.33;11.67;;;;;15.83;100.00;101118.78;4768046;29;45409;-88
2023/05/13 01:00:51;;;;;;;;;7.00;7.00;;;;;16.06;100.00;101132.16;4781629;29;47301;-89
2023/05/13 01:03:33;;;;;;;;;13.00;12.00;;;;;16.10;100.00;101142.00;4767560;29;45501;-88
2023/05/13 01:06:20;;;;;;;;;17.00;16.67;;;;;15.89;100.00;101141.13;4783973;29;45465;-88
2023/05/13 01:09:04;;;;;;;;;12.33;10.67;;;;;15.87;100.00;101139.34;4785247;29;45241;-88
2023/05/13 01:11:40;;;;;;;;;10.33;7.00;;;;;16.00;100.00;101138.44;4786673;29;46932;-88
2023/05/13 01:14:13;;;;;;;;;4.33;4.33;;;;;15.95;100.00;101137.53;4787896;29;45273;-89
2023/05/13 01:17:09;;;;;;;;;15.00;12.00;;;;;15.79;100.00;101117.91;4783485;29;45339;-88
2023/05/13 01:19:41;;;;;;;;;13.00;11.33;;;;;15.88;100.00;101128.63;4776405;29;45402;-88
2023/05/13 01:22:09;;;;;;;;;15.33;12.00;;;;;15.59;100.00;101107.16;4782149;29;46015;-89
2023/05/13 01:24:35;;;;;;;;;11.00;11.00;;;;;15.52;100.00;101119.69;4767093;29;45302;-89
2023/05/13 01:27:01;;;;;;;;;14.67;14.00;;;;;15.57;100.00;101127.72;4783960;29;45289;-88
2023/05/13 01:29:27;;;;;;;;;14.00;13.00;;;;;15.56;100.00;101126.81;4784158;29;46008;-89
2023/05/13 01:31:55;;;;;;;;;9.00;9.00;;;;;15.63;100.00;101140.22;4783588;29;45356;-90
2023/05/13 01:34:22;;;;;;;;;12.67;11.33;;;;;15.59;100.00;101147.38;4781285;29;45391;-89
2023/05/13 01:36:48;;;;;;;;;13.00;11.67;;;;;15.32;100.00;101108.94;4782416;29;45313;-89
2023/05/13 01:39:15;;;;;;;;;16.00;16.00;;;;;15.46;100.00;101121.47;4783487;29;44816;-89
2023/05/13 01:41:41;;;;;;;;;13.33;13.33;;;;;15.47;100.00;101139.31;4783570;29;46974;-89
2023/05/13 01:44:07;;;;;;;;;15.00;13.33;;;;;15.45;100.00;101136.69;4782293;29;45329;-88
2023/05/13 01:46:33;;;;;;;;;13.67;13.67;;;;;15.44;100.00;101144.72;4783411;29;45496;-88
2023/05/13 01:48:58;;;;;;;;;12.00;12.00;;;;;15.40;100.00;101127.72;4784411;29;45414;-88
2023/05/13 01:51:24;;;;;;;;;15.00;14.67;;;;;15.52;100.00;101142.91;4784526;29;47239;-88
2023/05/13 01:53:49;;;;;;;;;13.00;13.00;;;;;15.30;100.00;101121.47;4784641;29;45555;-88
2023/05/13 01:56:15;;;;;;;;;12.00;12.00;;;;;15.44;100.00;101142.03;4783571;29;45427;-89
2023/05/13 01:58:44;;;;;;;;;11.00;11.00;;;;;15.49;100.00;101159.91;4785226;29;45494;-89
2023/05/13 02:01:10;;;;;;;;;17.33;15.00;;;;;15.25;100.00;101122.34;4785593;29;46258;-88
2023/05/13 02:03:36;;;;;;;;;16.33;16.33;;;;;15.39;100.00;101152.72;4783181;29;45381;-88
2023/05/13 02:06:02;;;;;;;;;13.67;13.67;;;;;15.40;100.00;101147.38;4783427;29;45357;-88
2023/05/13 02:08:27;;;;;;;;;14.00;14.00;;;;;15.36;100.00;101148.25;4784836;29;45382;-88
2023/05/13 02:11:01;;;;;;;;;17.67;15.00;;;;;15.47;100.00;101133.97;4793084;29;45739;-90
2023/05/13 02:13:27;;;;;;;;;12.67;12.00;;;;;15.47;100.00;101150.06;4787261;29;45489;-89
2023/05/13 02:15:53;;;;;;;;;20.67;17.00;;;;;15.43;100.00;101137.53;4786747;29;45378;-89
2023/05/13 02:18:20;;;;;;;;;14.00;12.00;;;;;15.48;100.00;101143.81;4786666;29;45520;-88
2023/05/13 02:20:45;;;;;;;;;14.00;14.00;;;;;15.48;100.00;101154.53;4785707;29;48007;-89
2023/05/13 02:23:11;;;;;;;;;15.67;14.67;;;;;15.35;100.00;101132.16;4787459;29;46032;-89
2023/05/13 02:25:37;;;;;;;;;13.00;13.00;;;;;15.49;100.00;101153.63;4786769;29;45466;-89
2023/05/13 02:28:02;;;;;;;;;15.00;15.00;;;;;15.44;100.00;101136.66;4802673;29;45535;-88
2023/05/13 02:30:28;;;;;;;;;16.33;16.33;;;;;15.43;100.00;101151.88;4786291;29;46550;-89
2023/05/13 02:32:55;;;;;;;;;18.33;13.67;;;;;15.46;100.00;101156.31;4784533;29;45533;-89
2023/05/13 02:35:21;;;;;;;;;13.00;13.00;;;;;15.43;100.00;101149.19;4801033;29;45383;-88
2023/05/13 02:37:47;;;;;;;;;16.67;16.67;;;;;15.52;100.00;101159.00;4784993;29;45832;-88
2023/05/13 02:40:13;;;;;;;;;19.33;16.00;;;;;15.50;100.00;101156.31;4802777;29;45522;-89
2023/05/13 02:42:39;;;;;;;;;18.00;18.00;;;;;15.46;100.00;101150.97;4784405;29;45418;-88
2023/05/13 02:45:05;;;;;;;;;16.00;16.00;;;;;15.47;100.00;101160.78;4787373;29;45348;-89
2023/05/13 02:47:31;;;;;;;;;20.67;16.67;;;;;15.50;100.00;101150.06;4787359;29;45536;-88
2023/05/13 02:49:57;;;;;;;;;18.67;18.67;;;;;15.55;100.00;101158.97;4784068;29;47049;-88
2023/05/13 02:52:22;;;;;;;;;21.00;21.00;;;;;15.59;100.00;101152.72;4785568;29;45389;-88
2023/05/13 02:54:48;;;;;;;;;20.33;20.33;;;;;15.62;100.00;101147.38;4785660;29;45375;-88
2023/05/13 02:57:13;;;;;;;;;20.33;17.00;;;;;15.63;100.00;101146.47;4787710;29;45275;-88
2023/05/13 02:59:39;;;;;;;;;21.00;19.00;;;;;15.60;100.00;101141.13;4786861;29;47091;-88
2023/05/13 03:02:04;;;;;;;;;18.67;16.33;;;;;15.63;100.00;101148.28;4787604;29;45298;-88
2023/05/13 03:04:30;;;;;;;;;26.67;23.33;;;;;15.61;100.00;101156.31;4802199;29;45249;-88
2023/05/13 03:06:55;;;;;;;;;21.00;20.00;;;;;15.48;100.00;101147.38;4801275;29;45341;-87
2023/05/13 03:09:21;;;;;;;;;24.67;23.67;;;;;15.52;100.00;101159.88;4787499;29;47336;-88
2023/05/13 03:11:47;;;;;;;;;20.00;18.33;;;;;15.44;100.00;101136.66;4801707;29;45274;-88
2023/05/13 03:14:14;;;;;;;;;21.67;21.33;;;;;15.45;100.00;101150.06;4785003;29;45512;-88
2023/05/13 03:16:39;;;;;;;;;22.33;21.67;;;;;15.47;100.00;101156.34;4785532;29;45347;-88
2023/05/13 03:19:05;;;;;;;;;20.67;20.67;;;;;15.28;100.00;101128.59;4785867;29;47083;-88
2023/05/13 03:21:30;;;;;;;;;22.33;20.00;;;;;15.29;100.00;101118.75;4785510;29;45375;-88
2023/05/13 03:23:55;;;;;;;;;22.33;21.00;;;;;15.51;100.00;101158.13;4785384;29;45374;-87
2023/05/13 03:26:21;;;;;;;;;25.33;24.33;;;;;15.50;100.00;101150.06;4785607;29;45570;-87
2023/05/13 03:28:47;;;;;;;;;24.00;21.33;;;;;15.36;100.00;101136.66;4785567;29;46751;-88
2023/05/13 03:31:12;;;;;;;;;25.00;21.67;;;;;15.38;100.00;101138.44;4798750;29;45562;-87
2023/05/13 03:33:40;;;;;;;;;28.33;24.33;;;;;15.54;100.00;101152.75;4783705;29;45303;-87
2023/05/13 03:36:06;;;;;;;;;25.67;22.67;;;;;15.60;100.00;101174.19;4785507;29;45186;-87
2023/05/13 03:38:31;;;;;;;;;35.00;28.67;;;;;15.57;100.00;101157.19;4786252;29;46647;-88
2023/05/13 03:40:57;;;;;;;;;31.33;30.33;;;;;15.43;100.00;101145.59;4787880;29;45290;-88
2023/05/13 03:43:23;;;;;;;;;31.00;30.33;;;;;15.31;100.00;101112.53;4787740;29;45459;-89
2023/05/13 03:45:49;;;;;;;;;38.67;34.33;;;;;15.55;100.00;101161.66;4801400;29;45376;-88
2023/05/13 03:48:15;;;;;;;;;38.00;35.00;;;;;15.49;100.00;101146.50;4783155;29;47855;-89
2023/05/13 03:50:41;;;;;;;;;44.00;38.00;;;;;15.63;100.00;101172.41;4783414;29;45756;-88
2023/05/13 03:53:06;;;;;;;;;50.00;40.00;;;;;15.58;100.00;101161.69;4785849;29;45778;-88
2023/05/13 03:55:32;;;;;;;;;53.33;39.67;;;;;15.54;100.00;101163.47;4784036;29;45280;-88
2023/05/13 03:57:58;;;;;;;;;51.00;41.33;;;;;15.64;100.00;101168.84;4799719;29;46201;-88
2023/05/13 04:00:23;;;;;;;;;51.33;42.33;;;;;15.52;100.00;101148.28;4783629;29;45351;-89
2023/05/13 04:02:49;;;;;;;;;48.00;40.00;;;;;15.65;100.00;101178.66;4800023;29;45382;-88
2023/05/13 04:05:18;;;;;;;;;50.33;42.33;;;;;15.66;100.00;101178.66;4784391;29;45431;-88
2023/05/13 04:07:43;;;;;;;;;55.67;43.00;;;;;15.44;100.00;101155.44;4786298;29;47294;-88
2023/05/13 04:10:09;;;;;;;;;53.33;42.67;;;;;15.61;100.00;101180.44;4784289;29;45818;-88
2023/05/13 04:12:36;;;;;;;;;52.00;42.00;;;;;15.54;100.00;101179.56;4788437;29;45304;-88
2023/05/13 04:15:02;;;;;;;;;52.67;39.00;;;;;15.53;100.00;101183.13;4784778;29;45366;-88
2023/05/13 04:17:27;;;;;;;;;53.00;43.67;;;;;15.56;100.00;101191.16;4799566;29;45304;-88
2023/05/13 04:19:55;;;;;;;;;49.00;40.00;;;;;15.45;100.00;101167.91;4800276;29;45326;-88
2023/05/13 04:22:21;;;;;;;;;55.67;44.33;;;;;15.57;100.00;101178.66;4784526;29;45704;-88
2023/05/13 04:24:46;;;;;;;;;59.00;47.00;;;;;15.56;100.00;101159.00;4784208;29;45273;-88
2023/05/13 04:27:12;;;;;;;;;54.33;43.33;;;;;15.46;100.00;101167.94;4784268;29;46700;-88
2023/05/13 04:29:37;;;;;;;;;56.33;46.33;;;;;15.72;100.00;101184.06;4784025;29;45195;-88
2023/05/13 04:32:03;;;;;;;;;60.00;47.33;;;;;15.67;100.00;101167.03;4784466;29;45519;-88
2023/05/13 04:34:28;;;;;;;;;56.00;46.00;;;;;15.89;100.00;101207.28;4783779;29;45302;-88
2023/05/13 04:36:54;;;;;;;;;58.67;47.00;;;;;15.78;100.00;101193.91;4784736;29;47022;-88
2023/05/13 04:39:19;;;;;;;;;63.75;50.50;;;;;15.64;100.00;101164.38;4784147;29;45596;-88
2023/05/13 04:41:45;;;;;;;;;61.00;49.50;;;;;15.54;100.00;101173.31;4786032;29;45460;-88
2023/05/13 04:44:10;;;;;;;;;63.00;51.33;;;;;15.81;100.00;101193.88;4789125;29;45428;-88
2023/05/13 04:46:39;;;;;;;;;64.25;51.25;;;;;15.75;100.00;101194.81;4790470;29;47806;-88
2023/05/13 04:49:08;;;;;;;;;60.75;49.00;;;;;15.64;100.00;101172.41;4791441;29;45279;-88
2023/05/13 04:51:33;;;;;;;;;65.25;52.00;;;;;15.62;100.00;101182.25;4789594;29;45433;-87
2023/05/13 04:53:59;;;;;;;;;61.50;51.00;;;;;15.67;100.00;101183.13;4791038;29;45429;-87
2023/05/13 04:56:24;;;;;;;;;65.00;53.00;;;;;15.94;100.00;101210.88;4790992;29;47845;-87
2023/05/13 04:58:50;;;;;;;;;60.25;49.00;;;;;15.93;100.00;101203.72;4791073;29;45478;-87
2023/05/13 05:01:15;;;;;;;;;63.25;50.00;;;;;16.03;100.00;101210.84;4787857;29;45384;-88
2023/05/13 05:03:41;;;;;;;;;65.50;51.75;;;;;15.85;100.00;101189.41;4790827;29;45342;-88
2023/05/13 05:06:06;;;;;;;;;61.75;51.25;;;;;16.08;100.00;101214.44;4807781;29;45391;-88
2023/05/13 05:08:32;;;;;;;;;64.50;52.00;;;;;16.19;100.00;101222.47;4792363;29;44792;-88
2023/05/13 05:10:59;;;;;;;;;63.50;52.25;;;;;16.26;100.00;101213.53;4809120;29;45310;-88
2023/05/13 05:13:24;;;;;;;;;62.00;51.00;;;;;16.30;100.00;101231.41;4808515;29;45449;-88
2023/05/13 05:15:49;;;;;;;;;62.25;49.00;;;;;16.37;100.00;101229.59;4790404;29;47610;-88
2023/05/13 05:18:15;;;;;;;;;63.25;50.75;;;;;16.33;100.00;101217.09;4791015;29;44766;-87
2023/05/13 05:20:40;;;;;;;;;65.25;51.50;;;;;16.45;100.00;101225.09;4790647;29;45352;-87
2023/05/13 05:23:07;;;;;;;;;62.00;50.25;;;;;16.40;100.00;101213.47;4792688;29;45167;-88
2023/05/13 05:25:35;;;;;;;;;66.25;52.75;;;;;16.71;100.00;101246.53;4808142;29;45308;-88
2023/05/13 05:28:00;;;;;;;;;60.67;49.00;;;;;16.58;100.00;101225.97;4790651;29;45730;-88
2023/05/13 05:30:26;;;;;;;;;59.33;48.00;;;;;16.67;100.00;101246.53;4792251;29;44890;-88
2023/05/13 05:32:51;;;;;;;;;62.33;49.67;;;;;16.75;100.00;101259.03;4790433;29;45348;-88
2023/05/13 05:35:18;;;;;;;;;63.00;49.67;;;;;16.83;100.00;101263.53;4788536;29;46742;-88
2023/05/13 05:37:52;;;;;;;;;60.75;48.50;;;;;16.97;100.00;101237.53;4788689;29;45309;-88
2023/05/13 05:40:20;;;;;;;;;57.00;47.33;;;;;16.97;100.00;101246.47;4805515;29;45387;-88
2023/05/13 05:42:49;;;;;;;;;58.50;47.50;;;;;17.06;100.00;101228.50;4787724;29;45258;-88
2023/05/13 05:45:14;;;;;;;;;60.50;48.50;;;;;17.10;100.00;101265.22;4788017;29;45551;-88
2023/05/13 05:47:40;;;;;;;;;62.50;49.75;;;;;17.08;100.00;101259.84;4803522;29;45387;-88
2023/05/13 05:50:06;;;;;;;;;61.25;49.25;;;;;17.28;100.00;101275.88;4789302;29;45356;-88
2023/05/13 05:52:31;;;;;;;;;58.75;48.00;;;;;17.27;100.00;101271.41;4789848;29;45482;-88
2023/05/13 05:54:57;;;;;;;;;64.50;48.25;;;;;17.27;100.00;101276.78;4789298;29;46666;-89
2023/05/13 05:57:25;;;;;;;;;59.33;48.33;;;;;17.14;100.00;101285.81;4788301;29;45686;-88
2023/05/13 05:59:51;;;;;;;;;62.00;50.25;;;;;17.08;100.00;101288.53;4786443;29;45294;-87
2023/05/13 06:02:16;;;;;;;;;55.67;44.00;;;;;16.81;100.00;101247.44;4785942;29;45376;-88
2023/05/13 06:04:42;;;;;;;;;56.67;45.67;;;;;16.93;100.00;101285.00;4801803;29;45318;-88
2023/05/13 06:07:07;;;;;;;;;62.75;50.00;;;;;17.04;100.00;101294.81;4786132;29;45364;-88
2023/05/13 06:09:33;;;;;;;;;57.50;46.50;;;;;17.09;100.00;101293.00;4786763;29;45875;-87
2023/05/13 06:12:05;;;;;;;;;58.50;47.50;;;;;17.16;100.00;101284.88;4782848;29;45482;-87
2023/05/13 06:14:31;;;;;;;;;60.50;48.00;;;;;17.34;100.00;101291.97;4783915;29;48255;-88
2023/05/13 06:16:56;;;;;;;;;55.50;45.50;;;;;17.43;100.00;101298.22;4782276;29;44722;-88
2023/05/13 06:19:21;;;;;;;;;60.67;48.33;;;;;17.54;100.00;101293.69;4782127;29;45808;-88
2023/05/13 06:21:47;;;;;;;;;61.25;49.00;;;;;17.69;100.00;101300.75;4782335;29;45434;-88
2023/05/13 06:24:13;;;;;;;;;56.33;44.67;;;;;17.56;100.00;101284.69;4783103;29;47380;-88
2023/05/13 06:26:40;;;;;;;;;56.33;43.67;;;;;17.70;100.00;101297.16;4782013;29;45318;-88
2023/05/13 06:29:05;;;;;;;;;58.75;46.25;;;;;17.58;100.00;101282.88;4783456;29;45458;-88
2023/05/13 06:31:31;;;;;;;;;54.33;46.00;;;;;17.62;99.52;101290.94;4783566;29;45483;-88
2023/05/13 06:33:56;;;;;;;;;58.25;48.25;;;;;17.80;98.87;101315.03;4783268;29;47394;-88
2023/05/13 06:36:22;;;;;;;;;55.00;46.00;;;;;17.75;100.00;101308.78;4783764;29;45442;-88
2023/05/13 06:38:48;;;;;;;;;54.00;43.67;;;;;17.82;100.00;101325.78;4783005;29;45384;-88
2023/05/13 06:41:14;;;;;;;;;55.67;45.33;;;;;17.84;100.00;101324.03;4782365;29;45250;-88
2023/05/13 06:43:40;;;;;;;;;59.00;48.00;;;;;17.75;100.00;101323.16;4781867;29;48256;-89
2023/05/13 06:46:05;;;;;;;;;58.25;47.00;;;;;17.71;100.00;101315.06;4782682;29;45788;-88
2023/05/13 06:48:33;;;;;;;;;61.00;49.67;;;;;17.73;100.00;101319.56;4782716;29;44723;-88
2023/05/13 06:50:59;;;;;;;;;61.75;49.75;;;;;17.62;100.00;101302.59;4784887;29;44822;-88
2023/05/13 06:53:27;;;;;;;;;59.33;47.33;;;;;17.77;100.00;101334.78;4782620;29;48137;-88
2023/05/13 06:55:53;;;;;;;;;56.67;47.67;;;;;17.61;100.00;101303.47;4783686;29;45368;-89
2023/05/13 06:58:18;;;;;;;;;58.00;49.00;;;;;17.76;100.00;101326.72;4781840;29;45413;-88
2023/05/13 07:00:45;;;;;;;;;56.67;48.33;;;;;17.79;100.00;101314.16;4781776;29;45236;-89
2023/05/13 07:03:10;;;;;;;;;56.50;48.00;;;;;17.98;100.00;101319.44;4781544;29;47657;-89
2023/05/13 07:05:36;;;;;;;;;56.33;46.33;;;;;18.25;100.00;101314.72;4781104;29;45693;-89
2023/05/13 07:08:05;;;;;;;;;59.75;48.00;;;;;18.65;100.00;101320.63;4782936;29;45619;-89
2023/05/13 07:14:33;;;;;;;;;55.33;45.00;;;;;19.48;95.15;101316.09;4764150;29;45213;-89
2023/05/13 07:16:58;;;;;;;;;57.00;47.00;;;;;19.50;93.72;101319.69;4761722;29;45964;-89
2023/05/13 07:19:25;;;;;;;;;61.67;48.67;;;;;19.70;90.43;101322.09;4761750;29;45578;-88
2023/05/13 07:21:50;;;;;;;;;56.00;47.33;;;;;19.82;92.65;101316.56;4778630;29;45500;-88
2023/05/13 07:24:16;;;;;;;;;55.33;45.00;;;;;20.07;88.14;101311.66;4763650;29;45775;-88
2023/05/13 07:26:41;;;;;;;;;55.67;47.33;;;;;20.14;90.30;101316.03;4763466;29;45776;-88
2023/05/13 07:29:07;;;;;;;;;54.67;45.67;;;;;20.07;85.47;101303.53;4777283;29;45404;-88
2023/05/13 07:31:33;;;;;;;;;55.33;46.00;;;;;20.07;86.43;101327.84;4777461;29;45614;-88
2023/05/13 07:33:58;;;;;;;;;55.00;45.67;;;;;19.84;82.36;101297.66;4777755;29;47227;-89
2023/05/13 07:36:26;;;;;;;;;52.00;43.67;;;;;19.82;87.81;101321.06;4764147;29;45373;-88
2023/05/13 07:38:52;;;;;;;;;55.67;45.33;;;;;19.64;83.46;101306.88;4764694;29;44707;-89
2023/05/13 07:41:18;;;;;;;;;58.00;46.33;;;;;19.60;78.13;101315.94;4777442;29;45536;-89
2023/05/13 07:43:46;;;;;;;;;57.33;48.00;;;;;19.40;79.49;101289.22;4763657;29;45299;-88
2023/05/13 07:46:15;;;;;;;;;56.67;47.67;;;;;19.53;86.28;101303.44;4763366;29;45342;-88
2023/05/13 07:48:40;;;;;;;;;60.00;48.67;;;;;19.48;88.66;101324.19;4765167;29;45319;-88
2023/05/13 07:51:10;;;;;;;;;38.33;34.00;;;;;19.48;86.50;101335.00;4765787;29;45313;-88
2023/05/13 07:53:38;;;;;;;;;61.00;47.25;;;;;19.46;85.80;101324.22;4781891;29;47000;-88
2023/05/13 07:56:04;;;;;;;;;57.33;48.00;;;;;19.34;86.41;101319.00;4762748;29;45446;-88
2023/05/13 07:58:32;;;;;;;;;58.33;46.00;;;;;19.46;84.75;101339.50;4762193;29;45265;-89
2023/05/13 08:01:00;;;;;;;;;60.00;49.00;;;;;19.08;83.11;101327.41;4777600;29;45321;-89
2023/05/13 08:03:50;;;;;;;;;49.00;42.33;;;;;19.06;84.71;101345.41;4764394;29;46325;-88
2023/05/13 08:06:15;;;;;;;;;62.33;48.33;;;;;18.77;85.34;101316.94;4761244;29;45362;-87
2023/05/13 08:08:40;;;;;;;;;58.50;47.75;;;;;18.86;87.78;101333.00;4778713;29;45411;-86
2023/05/13 08:11:06;;;;;;;;;61.75;49.25;;;;;19.05;87.03;101351.72;4778560;29;45267;-88
2023/05/13 08:13:53;;;;;;;;;62.00;49.33;;;;;19.28;87.34;101355.00;4763273;29;47013;-87
2023/05/13 08:16:28;;;;;;;;;62.00;49.00;;;;;18.91;86.57;101324.91;4762050;29;45449;-89
2023/05/13 08:19:19;;;;;;;;;57.00;45.00;;;;;18.96;87.06;101329.31;4912074;24;46008;-89
2023/05/13 08:22:29;;;;;;;;;64.75;50.50;;;;;19.09;87.76;101353.47;4908869;23;46940;-87
2023/05/13 08:31:23;;;;;;;;;58.25;48.75;;;;;19.36;83.55;101346.81;4799380;29;46344;-87
2023/05/13 08:33:52;;;;;;;;;57.33;47.33;;;;;19.15;84.39;101307.56;4799869;29;44881;-87
2023/05/13 08:36:17;;;;;;;;;57.75;49.00;;;;;19.22;86.74;101340.72;4801914;29;45403;-86
2023/05/13 08:38:43;;;;;;;;;57.00;46.00;;;;;19.15;84.99;101339.91;4930679;23;45158;-86
2023/05/13 08:45:12;;;;;;;;;63.25;51.50;;;;;19.10;81.59;101358.81;4817896;29;46034;-87
2023/05/13 08:47:55;;;;;;;;;65.00;50.25;;;;;19.17;83.17;101355.16;4820214;29;46420;-84
2023/05/13 08:50:30;;;;;;;;;58.33;48.33;;;;;19.26;81.68;101359.53;4821430;29;45492;-84
2023/05/13 09:00:15;;;;;;;;;66.00;51.00;;;;;19.31;82.47;101356.75;4819921;29;45417;-87
2023/05/13 09:07:10;;;;;;;;;58.25;47.25;;;;;19.32;85.47;101355.88;4713132;30;45726;-87
2023/05/13 09:09:44;;;;;;;;;62.25;50.25;;;;;19.19;85.56;101363.22;4694707;30;45397;-87
2023/05/13 09:12:48;;;;;;;;;62.00;50.00;;;;;19.11;84.37;101351.63;4709967;30;47057;-87
2023/05/13 09:15:51;;;;;;;;;65.50;51.25;;;;;18.91;84.16;101341.97;4709794;30;45412;-86
2023/05/13 09:18:47;;;;;;;;;;;;;;;;;;;;;
2023/05/13 09:21:56;;;;;;;;;67.33;52.67;;;;;19.13;83.23;101325.56;4711062;30;64967;-87
2023/05/13 09:24:53;;;;;;;;;58.75;47.75;;;;;19.50;82.13;101358.34;4688775;30;46858;-86
2023/05/13 09:28:27;;;;;;;;;67.50;50.50;;;;;19.63;82.39;101364.44;4695941;30;45450;-86
2023/05/13 09:34:56;;;;;;;;;61.00;49.00;;;;;19.70;78.40;101349.97;4613221;30;45565;-85
2023/05/13 09:37:29;;;;;;;;;63.00;51.67;;;;;20.05;78.09;101345.88;4610643;30;45406;-86
2023/05/13 09:40:07;;;;;;;;;59.50;48.00;;;;;20.01;80.33;101365.75;4608768;30;44912;-86
2023/05/13 09:42:48;;;;;;;;;66.25;48.75;;;;;20.21;82.60;101361.84;4639567;30;45384;-86
2023/05/13 09:45:53;;;;;;;;;64.50;51.00;;;;;20.52;84.25;101362.22;4649448;30;45529;-86
2023/05/13 09:48:41;;;;;;;;;59.50;49.00;;;;;20.50;81.30;101364.97;4662193;30;46115;-86
2023/05/13 09:54:53;;;;;;;;;60.25;49.00;;;;;20.53;76.97;101332.47;4680343;30;45306;-86
2023/05/13 09:57:29;;;;;;;;;61.00;47.67;;;;;20.46;77.48;101340.72;4662435;30;44940;-86
2023/05/13 10:00:23;;;;;;;;;58.33;48.00;;;;;20.49;76.61;101336.16;4683381;30;47067;-86
2023/05/13 10:06:29;;;;;;;;;59.33;47.00;;;;;20.37;72.69;101317.47;4694935;30;45594;-87
2023/05/13 10:09:15;;;;;;;;;59.00;47.00;;;;;20.38;77.51;101325.56;4696073;30;45428;-86
2023/05/13 10:11:49;;;;;;;;;60.33;48.33;;;;;20.70;79.57;101334.03;4763564;29;45444;-85
2023/05/13 10:14:23;;;;;;;;;53.00;43.00;;;;;20.79;78.98;101317.63;4762729;29;45423;-87
2023/05/13 10:17:08;;;;;;;;;60.00;49.00;;;;;21.14;77.66;101334.97;4748798;29;45312;-86
2023/05/13 10:23:31;;;;;;;;;56.00;46.33;;;;;21.87;73.89;101347.88;4759197;29;46156;-86
2023/05/13 10:27:01;;;;;;;;;;;;;;;;;;;;;
2023/05/13 10:30:35;;;;;;;;;;;;;;;;;;;;;
2023/05/13 10:33:34;;;;;;;;;56.33;46.00;;;;;21.68;74.38;101310.38;4677911;30;67096;-86
2023/05/13 10:36:25;;;;;;;;;56.00;46.00;;;;;21.66;70.46;101339.31;4674126;30;46773;-86
2023/05/13 10:39:25;;;;;;;;;53.67;45.00;;;;;21.41;75.09;101319.09;4662876;30;45377;-86
2023/05/13 10:42:53;;;;;;;;;55.33;45.00;;;;;21.50;75.05;101327.03;4649585;30;45476;-85
2023/05/13 10:45:33;;;;;;;;;55.33;46.00;;;;;21.04;73.69;101317.16;4697169;30;45368;-85
2023/05/13 10:48:19;;;;;;;;;62.33;48.00;;;;;20.87;76.96;101296.75;4698075;30;45394;-85
2023/05/13 10:54:37;;;;;;;;;57.33;45.00;;;;;21.04;72.80;101325.28;4700674;30;45311;-85
2023/05/13 10:57:29;;;;;;;;;56.00;46.33;;;;;20.96;72.44;101323.59;4732907;30;45392;-86
2023/05/13 11:00:32;;;;;;;;;57.33;47.33;;;;;20.84;77.19;101290.50;4703917;30;47742;-85
2023/05/13 11:03:38;;;;;;;;;59.33;48.00;;;;;21.30;76.06;101319.31;4748004;29;45426;-85
2023/05/13 11:06:21;;;;;;;;;52.67;43.33;;;;;21.46;73.38;101319.91;4785754;29;45518;-85
2023/05/13 11:09:50;;;;;;;;;;;;;;;;;;;;;
2023/05/13 11:16:03;;;;;;;;;;;;;;;;;;;;;
2023/05/13 11:18:33;;;;;;;;;57.00;47.33;;;;;21.45;75.69;101282.94;4763354;29;67890;-85
2023/05/13 11:21:12;;;;;;;;;59.00;46.67;;;;;21.59;75.11;101272.69;4750140;29;45563;-86
2023/05/13 11:24:15;;;;;;;;;60.75;47.50;;;;;21.78;75.35;101301.13;4749225;29;47042;-86
2023/05/13 11:26:57;;;;;;;;;54.67;44.33;;;;;21.53;76.23;101262.00;4762032;29;45575;-86
2023/05/13 11:29:43;;;;;;;;;;;;;;;;;;;;;
2023/05/13 11:32:35;;;;;;;;;52.67;44.00;;;;;21.63;74.32;101268.97;4763759;29;66028;-85
2023/05/13 11:35:16;;;;;;;;;55.00;46.00;;;;;21.77;72.43;101250.63;4750108;29;48093;-85
2023/05/13 11:37:53;;;;;;;;;57.00;44.33;;;;;21.93;71.31;101255.66;4763726;29;45507;-85
2023/05/13 11:40:37;;;;;;;;;60.33;49.33;;;;;21.80;70.12;101254.19;4756527;29;45322;-85
2023/05/13 11:43:51;;;;;;;;;52.33;42.33;;;;;21.97;71.30;101284.44;4784048;29;45558;-86
2023/05/13 11:47:21;;;;;;;;;55.00;46.00;;;;;22.14;73.13;101260.53;4772344;29;47733;-86
2023/05/13 11:49:52;;;;;;;;;56.00;46.00;;;;;22.12;67.45;101242.53;4812281;29;45765;-86
2023/05/13 11:52:21;;;;;;;;;55.25;44.75;;;;;22.07;70.15;101241.75;4819337;29;45388;-86
2023/05/13 11:54:59;;;;;;;;;56.00;47.33;;;;;22.03;67.59;101238.22;4820334;29;45581;-86
2023/05/13 11:57:53;;;;;;;;;55.33;46.33;;;;;22.15;69.83;101262.28;4821837;29;45524;-85
2023/05/13 12:00:42;;;;;;;;;53.67;45.33;;;;;22.05;71.76;101216.53;4820392;29;45387;-86
2023/05/13 12:03:23;;;;;;;;;52.67;43.33;;;;;22.16;68.58;101228.88;4821536;29;45345;-86
2023/05/13 12:05:50;;;;;;;;;54.33;45.00;;;;;22.10;70.82;101236.28;4819977;29;45569;-86
2023/05/13 12:08:21;;;;;;;;;52.67;44.33;;;;;22.37;71.23;101229.25;4819521;29;47028;-86
2023/05/13 12:14:21;;;;;;;;;50.00;43.00;;;;;22.95;69.87;101243.00;4802469;29;45451;-86
2023/05/13 12:17:00;;;;;;;;;50.00;41.00;;;;;22.56;66.62;101205.22;4803432;29;45738;-86
2023/05/13 12:19:45;;;;;;;;;51.00;41.00;;;;;22.60;68.49;101189.78;4800653;29;45144;-86
2023/05/13 12:22:49;;;;;;;;;48.67;40.67;;;;;22.92;65.04;101221.38;4817989;29;45478;-86
2023/05/13 12:25:57;;;;;;;;;49.67;40.67;;;;;22.95;65.13;101219.47;4733573;29;45362;-86
2023/05/13 12:38:32;;;;;;;;;47.33;39.67;;;;;23.06;64.84;101186.59;4784443;29;45332;-85
2023/05/13 12:41:45;;;;;;;;;37.00;34.67;;;;;23.26;64.87;101194.13;4768624;29;45395;-86